sensor_id;sensor_type;location;lat;lon;timestamp;temperature;humidity
71436;SHT31;59251;51.326;12.370;2022-08-03T00:01:15;18.25;81.85
71436;SHT31;59251;51.326;12.370;2022-08-03T00:03:41;18.47;80.95
71436;SHT31;59251;51.326;12.370;2022-08-03T00:06:06;18.38;80.99
71436;SHT31;59251;51.326;12.370;2022-08-03T00:08:32;18.43;81.03
71436;SHT31;59251;51.326;12.370;2022-08-03T00:10:58;18.38;81.51
71436;SHT31;59251;51.326;12.370;2022-08-03T00:13:23;18.53;80.89
71436;SHT31;59251;51.326;12.370;2022-08-03T00:15:49;18.67;80.28
71436;SHT31;59251;51.326;12.370;2022-08-03T00:18:14;18.56;80.92
71436;SHT31;59251;51.326;12.370;2022-08-03T00:20:40;18.50;81.83
71436;SHT31;59251;51.326;12.370;2022-08-03T00:23:05;18.44;81.77
71436;SHT31;59251;51.326;12.370;2022-08-03T00:25:32;18.43;82.19
71436;SHT31;59251;51.326;12.370;2022-08-03T00:27:58;18.34;82.46
71436;SHT31;59251;51.326;12.370;2022-08-03T00:30:23;18.46;82.01
71436;SHT31;59251;51.326;12.370;2022-08-03T00:32:49;18.33;82.43
71436;SHT31;59251;51.326;12.370;2022-08-03T00:35:15;18.20;82.91
71436;SHT31;59251;51.326;12.370;2022-08-03T00:37:41;18.06;83.39
71436;SHT31;59251;51.326;12.370;2022-08-03T00:40:06;18.19;82.94
71436;SHT31;59251;51.326;12.370;2022-08-03T00:42:32;18.19;82.94
71436;SHT31;59251;51.326;12.370;2022-08-03T00:44:57;18.03;83.51
71436;SHT31;59251;51.326;12.370;2022-08-03T00:47:23;17.89;84.18
71436;SHT31;59251;51.326;12.370;2022-08-03T00:49:48;17.89;84.13
71436;SHT31;59251;51.326;12.370;2022-08-03T00:52:14;17.88;84.67
71436;SHT31;59251;51.326;12.370;2022-08-03T00:54:41;17.85;84.77
71436;SHT31;59251;51.326;12.370;2022-08-03T00:57:07;17.89;84.29
71436;SHT31;59251;51.326;12.370;2022-08-03T00:59:32;17.85;84.33
71436;SHT31;59251;51.326;12.370;2022-08-03T01:01:58;17.79;84.67
71436;SHT31;59251;51.326;12.370;2022-08-03T01:04:24;17.77;84.82
71436;SHT31;59251;51.326;12.370;2022-08-03T01:07:16;17.78;85.29
71436;SHT31;59251;51.326;12.370;2022-08-03T01:09:55;17.82;84.99
71436;SHT31;59251;51.326;12.370;2022-08-03T01:12:35;17.86;85.19
71436;SHT31;59251;51.326;12.370;2022-08-03T01:15:24;17.86;85.15
71436;SHT31;59251;51.326;12.370;2022-08-03T01:17:59;17.77;85.83
71436;SHT31;59251;51.326;12.370;2022-08-03T01:20:31;17.77;85.99
71436;SHT31;59251;51.326;12.370;2022-08-03T01:23:38;17.88;85.45
71436;SHT31;59251;51.326;12.370;2022-08-03T01:31:58;17.82;86.22
71436;SHT31;59251;51.326;12.370;2022-08-03T01:34:28;17.92;85.67
71436;SHT31;59251;51.326;12.370;2022-08-03T01:36:56;17.92;86.15
71436;SHT31;59251;51.326;12.370;2022-08-03T01:39:25;17.68;87.09
71436;SHT31;59251;51.326;12.370;2022-08-03T01:42:01;17.60;87.83
71436;SHT31;59251;51.326;12.370;2022-08-03T01:44:34;17.58;87.71
71436;SHT31;59251;51.326;12.370;2022-08-03T01:47:01;17.67;87.74
71436;SHT31;59251;51.326;12.370;2022-08-03T01:49:29;17.77;87.46
71436;SHT31;59251;51.326;12.370;2022-08-03T01:51:56;17.64;88.05
71436;SHT31;59251;51.326;12.370;2022-08-03T01:54:23;17.52;88.73
71436;SHT31;59251;51.326;12.370;2022-08-03T01:56:51;17.54;88.86
71436;SHT31;59251;51.326;12.370;2022-08-03T01:59:17;17.48;89.15
71436;SHT31;59251;51.326;12.370;2022-08-03T02:01:44;17.52;88.83
71436;SHT31;59251;51.326;12.370;2022-08-03T02:04:13;17.55;88.70
71436;SHT31;59251;51.326;12.370;2022-08-03T02:06:40;17.47;89.07
71436;SHT31;59251;51.326;12.370;2022-08-03T02:09:06;17.57;88.68
71436;SHT31;59251;51.326;12.370;2022-08-03T02:11:33;17.55;89.06
71436;SHT31;59251;51.326;12.370;2022-08-03T02:14:03;17.51;88.90
71436;SHT31;59251;51.326;12.370;2022-08-03T02:16:30;17.51;88.92
71436;SHT31;59251;51.326;12.370;2022-08-03T02:18:57;17.50;88.82
71436;SHT31;59251;51.326;12.370;2022-08-03T02:21:23;17.54;88.95
71436;SHT31;59251;51.326;12.370;2022-08-03T02:23:49;17.44;89.26
71436;SHT31;59251;51.326;12.370;2022-08-03T02:26:16;17.34;89.69
71436;SHT31;59251;51.326;12.370;2022-08-03T02:28:47;17.37;89.37
71436;SHT31;59251;51.326;12.370;2022-08-03T02:31:18;17.32;89.68
71436;SHT31;59251;51.326;12.370;2022-08-03T02:33:50;17.34;89.30
71436;SHT31;59251;51.326;12.370;2022-08-03T02:36:20;17.21;89.83
71436;SHT31;59251;51.326;12.370;2022-08-03T02:38:48;17.20;89.85
71436;SHT31;59251;51.326;12.370;2022-08-03T02:41:17;17.16;90.16
71436;SHT31;59251;51.326;12.370;2022-08-03T02:43:47;17.27;89.85
71436;SHT31;59251;51.326;12.370;2022-08-03T02:46:18;17.24;90.04
71436;SHT31;59251;51.326;12.370;2022-08-03T02:48:45;17.07;90.72
71436;SHT31;59251;51.326;12.370;2022-08-03T02:51:12;17.17;90.58
71436;SHT31;59251;51.326;12.370;2022-08-03T02:53:39;17.26;89.89
71436;SHT31;59251;51.326;12.370;2022-08-03T02:56:05;17.32;89.69
71436;SHT31;59251;51.326;12.370;2022-08-03T02:58:32;17.12;90.80
71436;SHT31;59251;51.326;12.370;2022-08-03T03:00:58;17.26;89.87
71436;SHT31;59251;51.326;12.370;2022-08-03T03:03:24;17.24;90.14
71436;SHT31;59251;51.326;12.370;2022-08-03T03:05:51;17.21;90.28
71436;SHT31;59251;51.326;12.370;2022-08-03T03:08:18;17.23;90.18
71436;SHT31;59251;51.326;12.370;2022-08-03T03:10:45;17.26;90.03
71436;SHT31;59251;51.326;12.370;2022-08-03T03:13:12;17.19;90.35
71436;SHT31;59251;51.326;12.370;2022-08-03T03:15:39;17.37;89.28
71436;SHT31;59251;51.326;12.370;2022-08-03T03:18:06;17.38;89.24
71436;SHT31;59251;51.326;12.370;2022-08-03T03:20:34;17.34;89.46
71436;SHT31;59251;51.326;12.370;2022-08-03T03:23:01;17.34;89.13
71436;SHT31;59251;51.326;12.370;2022-08-03T03:25:30;17.35;89.25
71436;SHT31;59251;51.326;12.370;2022-08-03T03:28:00;17.21;89.68
71436;SHT31;59251;51.326;12.370;2022-08-03T03:30:26;17.40;89.18
71436;SHT31;59251;51.326;12.370;2022-08-03T03:32:52;17.27;89.48
71436;SHT31;59251;51.326;12.370;2022-08-03T03:35:17;17.16;89.44
71436;SHT31;59251;51.326;12.370;2022-08-03T03:37:43;17.16;89.50
71436;SHT31;59251;51.326;12.370;2022-08-03T03:40:09;17.16;89.23
71436;SHT31;59251;51.326;12.370;2022-08-03T03:42:35;17.12;89.21
71436;SHT31;59251;51.326;12.370;2022-08-03T03:45:03;17.21;89.12
71436;SHT31;59251;51.326;12.370;2022-08-03T03:47:29;17.09;89.70
71436;SHT31;59251;51.326;12.370;2022-08-03T03:49:56;17.13;89.61
71436;SHT31;59251;51.326;12.370;2022-08-03T03:52:21;17.07;89.35
71436;SHT31;59251;51.326;12.370;2022-08-03T03:54:47;16.92;90.28
71436;SHT31;59251;51.326;12.370;2022-08-03T03:57:12;17.03;89.93
71436;SHT31;59251;51.326;12.370;2022-08-03T03:59:39;17.06;89.74
71436;SHT31;59251;51.326;12.370;2022-08-03T04:02:05;16.86;90.51
71436;SHT31;59251;51.326;12.370;2022-08-03T04:04:32;16.89;90.33
71436;SHT31;59251;51.326;12.370;2022-08-03T04:07:17;16.90;90.25
71436;SHT31;59251;51.326;12.370;2022-08-03T04:10:03;16.89;90.52
71436;SHT31;59251;51.326;12.370;2022-08-03T04:12:48;17.02;90.12
71436;SHT31;59251;51.326;12.370;2022-08-03T04:15:17;16.90;90.58
71436;SHT31;59251;51.326;12.370;2022-08-03T04:17:45;17.12;89.65
71436;SHT31;59251;51.326;12.370;2022-08-03T04:20:12;17.04;89.90
71436;SHT31;59251;51.326;12.370;2022-08-03T04:22:38;16.97;90.14
71436;SHT31;59251;51.326;12.370;2022-08-03T04:25:06;17.14;89.59
71436;SHT31;59251;51.326;12.370;2022-08-03T04:27:38;17.16;89.14
71436;SHT31;59251;51.326;12.370;2022-08-03T04:30:05;17.13;89.55
71436;SHT31;59251;51.326;12.370;2022-08-03T04:32:31;17.31;87.48
71436;SHT31;59251;51.326;12.370;2022-08-03T04:34:58;17.48;84.97
71436;SHT31;59251;51.326;12.370;2022-08-03T04:37:37;17.45;87.50
71436;SHT31;59251;51.326;12.370;2022-08-03T04:40:07;17.57;85.96
71436;SHT31;59251;51.326;12.370;2022-08-03T04:42:33;17.54;86.93
71436;SHT31;59251;51.326;12.370;2022-08-03T04:45:02;17.74;85.83
71436;SHT31;59251;51.326;12.370;2022-08-03T04:47:31;18.19;84.08
71436;SHT31;59251;51.326;12.370;2022-08-03T04:49:56;17.96;83.19
71436;SHT31;59251;51.326;12.370;2022-08-03T04:52:22;18.00;83.09
71436;SHT31;59251;51.326;12.370;2022-08-03T04:54:47;18.17;82.20
71436;SHT31;59251;51.326;12.370;2022-08-03T04:57:13;18.33;80.49
71436;SHT31;59251;51.326;12.370;2022-08-03T04:59:39;18.56;79.83
71436;SHT31;59251;51.326;12.370;2022-08-03T05:02:04;18.78;80.27
71436;SHT31;59251;51.326;12.370;2022-08-03T05:04:31;18.76;81.39
71436;SHT31;59251;51.326;12.370;2022-08-03T05:06:56;18.83;80.26
71436;SHT31;59251;51.326;12.370;2022-08-03T05:09:21;18.95;80.16
71436;SHT31;59251;51.326;12.370;2022-08-03T05:11:47;19.18;78.68
71436;SHT31;59251;51.326;12.370;2022-08-03T05:14:12;19.37;77.57
71436;SHT31;59251;51.326;12.370;2022-08-03T05:16:38;19.49;77.20
71436;SHT31;59251;51.326;12.370;2022-08-03T05:19:03;19.71;75.08
71436;SHT31;59251;51.326;12.370;2022-08-03T05:21:29;20.01;74.17
71436;SHT31;59251;51.326;12.370;2022-08-03T05:23:54;20.38;72.52
71436;SHT31;59251;51.326;12.370;2022-08-03T05:26:19;20.22;73.12
71436;SHT31;59251;51.326;12.370;2022-08-03T05:28:45;20.30;73.18
71436;SHT31;59251;51.326;12.370;2022-08-03T05:31:10;20.09;73.77
71436;SHT31;59251;51.326;12.370;2022-08-03T05:33:37;19.97;74.50
71436;SHT31;59251;51.326;12.370;2022-08-03T05:36:04;20.47;73.03
71436;SHT31;59251;51.326;12.370;2022-08-03T05:38:30;20.47;72.56
71436;SHT31;59251;51.326;12.370;2022-08-03T05:40:56;20.60;71.32
71436;SHT31;59251;51.326;12.370;2022-08-03T05:43:22;21.14;70.22
71436;SHT31;59251;51.326;12.370;2022-08-03T05:45:48;21.63;68.35
71436;SHT31;59251;51.326;12.370;2022-08-03T05:48:13;21.90;67.35
71436;SHT31;59251;51.326;12.370;2022-08-03T05:50:39;22.85;64.87
71436;SHT31;59251;51.326;12.370;2022-08-03T05:53:04;22.94;63.16
71436;SHT31;59251;51.326;12.370;2022-08-03T05:55:29;23.12;62.45
71436;SHT31;59251;51.326;12.370;2022-08-03T05:57:55;24.36;59.72
71436;SHT31;59251;51.326;12.370;2022-08-03T06:00:20;23.91;59.65
71436;SHT31;59251;51.326;12.370;2022-08-03T06:02:46;24.37;59.42
71436;SHT31;59251;51.326;12.370;2022-08-03T06:05:11;23.54;61.88
71436;SHT31;59251;51.326;12.370;2022-08-03T06:07:37;24.32;59.09
71436;SHT31;59251;51.326;12.370;2022-08-03T06:10:03;24.85;56.36
71436;SHT31;59251;51.326;12.370;2022-08-03T06:12:29;24.67;57.23
71436;SHT31;59251;51.326;12.370;2022-08-03T06:14:55;24.39;57.98
71436;SHT31;59251;51.326;12.370;2022-08-03T06:17:21;24.87;56.44
71436;SHT31;59251;51.326;12.370;2022-08-03T06:19:46;24.19;57.87
71436;SHT31;59251;51.326;12.370;2022-08-03T06:22:11;23.77;59.87
71436;SHT31;59251;51.326;12.370;2022-08-03T06:24:37;22.95;62.68
71436;SHT31;59251;51.326;12.370;2022-08-03T06:27:02;23.17;62.54
71436;SHT31;59251;51.326;12.370;2022-08-03T06:29:29;23.44;61.40
71436;SHT31;59251;51.326;12.370;2022-08-03T06:31:54;23.36;61.37
71436;SHT31;59251;51.326;12.370;2022-08-03T06:34:19;22.71;63.38
71436;SHT31;59251;51.326;12.370;2022-08-03T06:36:45;23.12;62.34
71436;SHT31;59251;51.326;12.370;2022-08-03T06:39:12;23.36;60.64
71436;SHT31;59251;51.326;12.370;2022-08-03T06:41:38;23.10;61.70
71436;SHT31;59251;51.326;12.370;2022-08-03T06:44:04;23.37;61.32
71436;SHT31;59251;51.326;12.370;2022-08-03T06:46:29;23.74;59.99
71436;SHT31;59251;51.326;12.370;2022-08-03T06:48:55;24.19;58.10
71436;SHT31;59251;51.326;12.370;2022-08-03T06:51:20;24.43;57.58
71436;SHT31;59251;51.326;12.370;2022-08-03T06:53:47;24.57;56.20
71436;SHT31;59251;51.326;12.370;2022-08-03T06:56:13;24.56;55.34
71436;SHT31;59251;51.326;12.370;2022-08-03T06:58:38;24.73;55.80
71436;SHT31;59251;51.326;12.370;2022-08-03T07:01:04;24.61;56.01
71436;SHT31;59251;51.326;12.370;2022-08-03T07:03:29;24.74;55.96
71436;SHT31;59251;51.326;12.370;2022-08-03T07:05:54;24.76;55.95
71436;SHT31;59251;51.326;12.370;2022-08-03T07:08:20;24.78;55.34
71436;SHT31;59251;51.326;12.370;2022-08-03T07:10:45;24.56;55.75
71436;SHT31;59251;51.326;12.370;2022-08-03T07:13:11;24.66;56.66
71436;SHT31;59251;51.326;12.370;2022-08-03T07:15:38;24.74;56.31
71436;SHT31;59251;51.326;12.370;2022-08-03T07:18:04;25.31;54.96
71436;SHT31;59251;51.326;12.370;2022-08-03T07:20:30;25.33;54.95
71436;SHT31;59251;51.326;12.370;2022-08-03T07:22:56;25.12;56.07
71436;SHT31;59251;51.326;12.370;2022-08-03T07:25:21;25.35;54.96
71436;SHT31;59251;51.326;12.370;2022-08-03T07:27:47;25.49;54.10
71436;SHT31;59251;51.326;12.370;2022-08-03T07:30:14;25.76;53.35
71436;SHT31;59251;51.326;12.370;2022-08-03T07:32:39;25.94;53.83
71436;SHT31;59251;51.326;12.370;2022-08-03T07:35:06;26.02;52.99
71436;SHT31;59251;51.326;12.370;2022-08-03T07:37:32;25.59;54.22
71436;SHT31;59251;51.326;12.370;2022-08-03T07:40:00;26.17;52.77
71436;SHT31;59251;51.326;12.370;2022-08-03T07:42:27;26.18;52.64
71436;SHT31;59251;51.326;12.370;2022-08-03T07:44:53;26.27;52.65
71436;SHT31;59251;51.326;12.370;2022-08-03T07:47:19;26.34;52.69
71436;SHT31;59251;51.326;12.370;2022-08-03T07:49:46;26.48;52.52
71436;SHT31;59251;51.326;12.370;2022-08-03T07:52:11;26.21;52.73
71436;SHT31;59251;51.326;12.370;2022-08-03T07:54:55;26.62;52.07
71436;SHT31;59251;51.326;12.370;2022-08-03T07:57:20;26.65;51.51
71436;SHT31;59251;51.326;12.370;2022-08-03T07:59:46;26.49;52.19
71436;SHT31;59251;51.326;12.370;2022-08-03T08:02:12;26.56;52.09
71436;SHT31;59251;51.326;12.370;2022-08-03T08:04:38;26.75;51.18
71436;SHT31;59251;51.326;12.370;2022-08-03T08:07:03;26.53;51.36
71436;SHT31;59251;51.326;12.370;2022-08-03T08:09:29;26.37;50.63
71436;SHT31;59251;51.326;12.370;2022-08-03T08:11:54;26.78;49.92
71436;SHT31;59251;51.326;12.370;2022-08-03T08:14:20;26.68;50.92
71436;SHT31;59251;51.326;12.370;2022-08-03T08:16:45;27.16;48.88
71436;SHT31;59251;51.326;12.370;2022-08-03T08:19:11;26.69;48.42
71436;SHT31;59251;51.326;12.370;2022-08-03T08:21:38;27.11;47.20
71436;SHT31;59251;51.326;12.370;2022-08-03T08:24:05;27.24;47.55
71436;SHT31;59251;51.326;12.370;2022-08-03T08:26:30;27.06;47.58
71436;SHT31;59251;51.326;12.370;2022-08-03T08:28:55;27.30;46.79
71436;SHT31;59251;51.326;12.370;2022-08-03T08:31:21;27.45;46.51
71436;SHT31;59251;51.326;12.370;2022-08-03T08:33:46;27.68;43.82
71436;SHT31;59251;51.326;12.370;2022-08-03T08:36:11;27.91;42.80
71436;SHT31;59251;51.326;12.370;2022-08-03T08:38:37;27.91;42.90
71436;SHT31;59251;51.326;12.370;2022-08-03T08:41:06;27.86;45.61
71436;SHT31;59251;51.326;12.370;2022-08-03T08:43:31;28.37;43.29
71436;SHT31;59251;51.326;12.370;2022-08-03T08:45:58;28.27;42.57
71436;SHT31;59251;51.326;12.370;2022-08-03T08:48:25;28.35;43.83
71436;SHT31;59251;51.326;12.370;2022-08-03T08:50:53;28.69;43.20
71436;SHT31;59251;51.326;12.370;2022-08-03T08:53:20;28.79;43.00
71436;SHT31;59251;51.326;12.370;2022-08-03T08:55:46;28.69;43.73
71436;SHT31;59251;51.326;12.370;2022-08-03T08:58:13;28.29;42.11
71436;SHT31;59251;51.326;12.370;2022-08-03T09:00:40;28.48;42.34
71436;SHT31;59251;51.326;12.370;2022-08-03T09:03:09;28.94;41.90
71436;SHT31;59251;51.326;12.370;2022-08-03T09:05:34;28.92;41.04
71436;SHT31;59251;51.326;12.370;2022-08-03T09:08:00;28.90;41.21
71436;SHT31;59251;51.326;12.370;2022-08-03T09:10:25;28.75;40.64
71436;SHT31;59251;51.326;12.370;2022-08-03T09:12:51;28.23;40.73
71436;SHT31;59251;51.326;12.370;2022-08-03T09:15:24;28.71;40.61
71436;SHT31;59251;51.326;12.370;2022-08-03T09:17:51;28.75;40.60
71436;SHT31;59251;51.326;12.370;2022-08-03T09:20:17;29.11;40.63
71436;SHT31;59251;51.326;12.370;2022-08-03T09:23:02;29.09;39.77
71436;SHT31;59251;51.326;12.370;2022-08-03T09:25:37;29.36;38.63
71436;SHT31;59251;51.326;12.370;2022-08-03T09:28:10;28.94;38.27
71436;SHT31;59251;51.326;12.370;2022-08-03T09:30:38;29.25;38.89
71436;SHT31;59251;51.326;12.370;2022-08-03T09:33:05;29.54;37.96
71436;SHT31;59251;51.326;12.370;2022-08-03T09:35:32;29.94;37.41
71436;SHT31;59251;51.326;12.370;2022-08-03T09:40:39;29.94;37.64
71436;SHT31;59251;51.326;12.370;2022-08-03T09:43:05;29.52;38.29
71436;SHT31;59251;51.326;12.370;2022-08-03T09:45:35;29.60;38.47
71436;SHT31;59251;51.326;12.370;2022-08-03T09:51:11;29.92;37.59
71436;SHT31;59251;51.326;12.370;2022-08-03T09:53:43;30.05;37.06
71436;SHT31;59251;51.326;12.370;2022-08-03T09:56:09;30.00;37.17
71436;SHT31;59251;51.326;12.370;2022-08-03T09:58:44;30.28;37.99
71436;SHT31;59251;51.326;12.370;2022-08-03T10:01:11;29.76;38.16
71436;SHT31;59251;51.326;12.370;2022-08-03T10:03:37;29.87;38.07
71436;SHT31;59251;51.326;12.370;2022-08-03T10:08:41;30.51;36.97
71436;SHT31;59251;51.326;12.370;2022-08-03T10:11:06;29.96;37.57
71436;SHT31;59251;51.326;12.370;2022-08-03T10:13:35;30.18;37.52
71436;SHT31;59251;51.326;12.370;2022-08-03T10:16:01;30.04;37.74
71436;SHT31;59251;51.326;12.370;2022-08-03T10:18:29;30.39;37.93
71436;SHT31;59251;51.326;12.370;2022-08-03T10:20:58;30.39;37.22
71436;SHT31;59251;51.326;12.370;2022-08-03T10:23:27;30.55;36.44
71436;SHT31;59251;51.326;12.370;2022-08-03T10:25:57;30.98;35.62
71436;SHT31;59251;51.326;12.370;2022-08-03T10:28:23;31.18;35.69
71436;SHT31;59251;51.326;12.370;2022-08-03T10:30:51;30.79;36.62
71436;SHT31;59251;51.326;12.370;2022-08-03T10:33:23;30.66;36.93
71436;SHT31;59251;51.326;12.370;2022-08-03T10:35:53;30.59;36.65
71436;SHT31;59251;51.326;12.370;2022-08-03T10:38:24;30.93;35.82
71436;SHT31;59251;51.326;12.370;2022-08-03T10:40:53;30.69;35.80
71436;SHT31;59251;51.326;12.370;2022-08-03T10:43:37;30.91;35.90
71436;SHT31;59251;51.326;12.370;2022-08-03T10:46:06;31.30;35.21
71436;SHT31;59251;51.326;12.370;2022-08-03T10:48:33;30.96;35.08
71436;SHT31;59251;51.326;12.370;2022-08-03T10:51:00;31.28;35.00
71436;SHT31;59251;51.326;12.370;2022-08-03T10:53:41;31.23;34.83
71436;SHT31;59251;51.326;12.370;2022-08-03T10:59:19;31.28;35.62
71436;SHT31;59251;51.326;12.370;2022-08-03T11:01:50;31.07;35.17
71436;SHT31;59251;51.326;12.370;2022-08-03T11:04:16;31.46;35.48
71436;SHT31;59251;51.326;12.370;2022-08-03T11:06:43;31.88;34.64
71436;SHT31;59251;51.326;12.370;2022-08-03T11:11:37;32.13;34.21
71436;SHT31;59251;51.326;12.370;2022-08-03T11:14:05;31.34;34.36
71436;SHT31;59251;51.326;12.370;2022-08-03T11:16:37;31.92;33.95
71436;SHT31;59251;51.326;12.370;2022-08-03T11:19:05;32.16;32.06
71436;SHT31;59251;51.326;12.370;2022-08-03T11:35:34;32.43;33.74
71436;SHT31;59251;51.326;12.370;2022-08-03T11:38:02;32.75;33.37
71436;SHT31;59251;51.326;12.370;2022-08-03T11:40:46;32.92;33.20
71436;SHT31;59251;51.326;12.370;2022-08-03T11:46:08;33.47;32.33
71436;SHT31;59251;51.326;12.370;2022-08-03T11:48:43;33.33;31.79
71436;SHT31;59251;51.326;12.370;2022-08-03T11:56:18;34.39;30.03
71436;SHT31;59251;51.326;12.370;2022-08-03T11:58:52;34.51;29.56
71436;SHT31;59251;51.326;12.370;2022-08-03T12:01:18;35.02;27.32
71436;SHT31;59251;51.326;12.370;2022-08-03T12:03:44;34.86;29.16
71436;SHT31;59251;51.326;12.370;2022-08-03T12:06:11;35.48;27.56
71436;SHT31;59251;51.326;12.370;2022-08-03T12:08:37;34.00;29.63
71436;SHT31;59251;51.326;12.370;2022-08-03T12:11:04;34.31;28.90
71436;SHT31;59251;51.326;12.370;2022-08-03T12:16:03;36.22;27.75
71436;SHT31;59251;51.326;12.370;2022-08-03T12:18:28;35.45;28.47
71436;SHT31;59251;51.326;12.370;2022-08-03T12:21:06;35.54;29.70
71436;SHT31;59251;51.326;12.370;2022-08-03T12:23:33;34.93;29.03
71436;SHT31;59251;51.326;12.370;2022-08-03T12:26:08;34.57;29.43
71436;SHT31;59251;51.326;12.370;2022-08-03T12:28:34;34.63;29.38
71436;SHT31;59251;51.326;12.370;2022-08-03T12:31:05;36.20;27.84
71436;SHT31;59251;51.326;12.370;2022-08-03T12:33:32;36.96;27.43
71436;SHT31;59251;51.326;12.370;2022-08-03T12:36:18;36.05;27.92
71436;SHT31;59251;51.326;12.370;2022-08-03T12:38:53;37.98;26.12
71436;SHT31;59251;51.326;12.370;2022-08-03T12:41:27;37.36;26.04
71436;SHT31;59251;51.326;12.370;2022-08-03T12:43:53;38.15;25.49
71436;SHT31;59251;51.326;12.370;2022-08-03T12:46:19;36.03;27.01
71436;SHT31;59251;51.326;12.370;2022-08-03T12:48:58;37.12;25.97
71436;SHT31;59251;51.326;12.370;2022-08-03T12:51:25;36.63;26.60
71436;SHT31;59251;51.326;12.370;2022-08-03T12:53:56;36.32;26.81
71436;SHT31;59251;51.326;12.370;2022-08-03T12:56:22;36.41;26.69
71436;SHT31;59251;51.326;12.370;2022-08-03T12:58:47;37.39;26.53
71436;SHT31;59251;51.326;12.370;2022-08-03T13:01:14;35.93;27.30
71436;SHT31;59251;51.326;12.370;2022-08-03T13:03:47;36.74;26.41
71436;SHT31;59251;51.326;12.370;2022-08-03T13:06:14;37.19;26.44
71436;SHT31;59251;51.326;12.370;2022-08-03T13:08:40;36.39;27.65
71436;SHT31;59251;51.326;12.370;2022-08-03T13:11:24;36.39;27.21
71436;SHT31;59251;51.326;12.370;2022-08-03T13:13:52;36.40;26.84
71436;SHT31;59251;51.326;12.370;2022-08-03T13:16:22;37.04;26.11
71436;SHT31;59251;51.326;12.370;2022-08-03T13:18:48;36.06;26.87
71436;SHT31;59251;51.326;12.370;2022-08-03T13:21:16;36.88;26.25
71436;SHT31;59251;51.326;12.370;2022-08-03T13:23:42;36.36;26.83
71436;SHT31;59251;51.326;12.370;2022-08-03T13:26:08;35.18;27.92
71436;SHT31;59251;51.326;12.370;2022-08-03T13:28:34;36.74;26.50
71436;SHT31;59251;51.326;12.370;2022-08-03T13:30:59;37.36;25.45
71436;SHT31;59251;51.326;12.370;2022-08-03T13:33:28;36.36;26.50
71436;SHT31;59251;51.326;12.370;2022-08-03T13:35:54;36.23;26.86
71436;SHT31;59251;51.326;12.370;2022-08-03T13:38:19;37.32;26.01
71436;SHT31;59251;51.326;12.370;2022-08-03T13:40:45;36.90;26.05
71436;SHT31;59251;51.326;12.370;2022-08-03T13:43:10;37.79;24.96
71436;SHT31;59251;51.326;12.370;2022-08-03T13:45:37;37.14;25.79
71436;SHT31;59251;51.326;12.370;2022-08-03T13:48:02;37.07;25.55
71436;SHT31;59251;51.326;12.370;2022-08-03T13:50:28;37.91;25.17
71436;SHT31;59251;51.326;12.370;2022-08-03T13:52:54;36.91;25.74
71436;SHT31;59251;51.326;12.370;2022-08-03T13:55:19;37.69;25.07
71436;SHT31;59251;51.326;12.370;2022-08-03T13:57:44;37.10;25.36
71436;SHT31;59251;51.326;12.370;2022-08-03T14:00:10;37.69;25.30
71436;SHT31;59251;51.326;12.370;2022-08-03T14:02:36;36.99;26.00
71436;SHT31;59251;51.326;12.370;2022-08-03T14:05:01;38.28;24.46
71436;SHT31;59251;51.326;12.370;2022-08-03T14:07:27;38.11;24.02
71436;SHT31;59251;51.326;12.370;2022-08-03T14:09:52;41.21;21.66
71436;SHT31;59251;51.326;12.370;2022-08-03T14:12:17;41.68;21.41
71436;SHT31;59251;51.326;12.370;2022-08-03T14:14:43;41.04;21.11
71436;SHT31;59251;51.326;12.370;2022-08-03T14:17:08;40.88;21.05
71436;SHT31;59251;51.326;12.370;2022-08-03T14:19:34;37.73;23.99
71436;SHT31;59251;51.326;12.370;2022-08-03T14:21:59;38.42;24.07
71436;SHT31;59251;51.326;12.370;2022-08-03T14:24:25;38.99;23.51
71436;SHT31;59251;51.326;12.370;2022-08-03T14:26:50;40.66;21.85
71436;SHT31;59251;51.326;12.370;2022-08-03T14:29:15;38.47;23.82
71436;SHT31;59251;51.326;12.370;2022-08-03T14:31:41;38.89;24.23
71436;SHT31;59251;51.326;12.370;2022-08-03T14:34:06;40.95;22.11
71436;SHT31;59251;51.326;12.370;2022-08-03T14:36:31;41.07;21.85
71436;SHT31;59251;51.326;12.370;2022-08-03T14:38:57;41.80;21.65
71436;SHT31;59251;51.326;12.370;2022-08-03T14:41:22;41.11;21.89
71436;SHT31;59251;51.326;12.370;2022-08-03T14:43:48;41.87;21.01
71436;SHT31;59251;51.326;12.370;2022-08-03T14:46:13;38.13;23.91
71436;SHT31;59251;51.326;12.370;2022-08-03T14:48:39;39.54;23.14
71436;SHT31;59251;51.326;12.370;2022-08-03T14:51:04;40.61;22.59
71436;SHT31;59251;51.326;12.370;2022-08-03T14:53:30;39.19;23.11
71436;SHT31;59251;51.326;12.370;2022-08-03T14:55:56;37.98;24.82
71436;SHT31;59251;51.326;12.370;2022-08-03T14:58:22;38.18;23.63
71436;SHT31;59251;51.326;12.370;2022-08-03T15:00:51;37.59;24.53
71436;SHT31;59251;51.326;12.370;2022-08-03T15:03:17;37.65;24.31
71436;SHT31;59251;51.326;12.370;2022-08-03T15:05:48;36.94;24.85
71436;SHT31;59251;51.326;12.370;2022-08-03T15:08:13;37.72;24.30
71436;SHT31;59251;51.326;12.370;2022-08-03T15:10:39;37.07;25.09
71436;SHT31;59251;51.326;12.370;2022-08-03T15:13:04;37.55;24.16
71436;SHT31;59251;51.326;12.370;2022-08-03T15:15:30;38.28;23.87
71436;SHT31;59251;51.326;12.370;2022-08-03T15:17:55;38.38;23.63
71436;SHT31;59251;51.326;12.370;2022-08-03T15:20:20;38.75;23.41
71436;SHT31;59251;51.326;12.370;2022-08-03T15:22:46;39.36;23.38
71436;SHT31;59251;51.326;12.370;2022-08-03T15:25:11;37.67;24.64
71436;SHT31;59251;51.326;12.370;2022-08-03T15:27:37;39.85;22.94
71436;SHT31;59251;51.326;12.370;2022-08-03T15:30:03;37.94;24.28
71436;SHT31;59251;51.326;12.370;2022-08-03T15:32:33;37.52;24.70
71436;SHT31;59251;51.326;12.370;2022-08-03T15:34:59;39.11;23.03
71436;SHT31;59251;51.326;12.370;2022-08-03T15:37:24;37.25;24.62
71436;SHT31;59251;51.326;12.370;2022-08-03T15:39:50;36.54;25.37
71436;SHT31;59251;51.326;12.370;2022-08-03T15:42:15;37.72;24.70
71436;SHT31;59251;51.326;12.370;2022-08-03T15:44:41;38.01;24.16
71436;SHT31;59251;51.326;12.370;2022-08-03T15:47:06;36.40;25.86
71436;SHT31;59251;51.326;12.370;2022-08-03T15:49:31;35.93;26.14
71436;SHT31;59251;51.326;12.370;2022-08-03T15:51:57;35.38;26.75
71436;SHT31;59251;51.326;12.370;2022-08-03T15:54:22;37.28;25.29
71436;SHT31;59251;51.326;12.370;2022-08-03T15:56:48;37.47;24.50
71436;SHT31;59251;51.326;12.370;2022-08-03T15:59:14;35.38;26.35
71436;SHT31;59251;51.326;12.370;2022-08-03T16:01:39;34.85;27.27